sensor_id;sensor_type;location;lat;lon;timestamp;pressure;altitude;pressure_sealevel;temperature;humidity
68179;BME280;69812;42.632;23.440;2023-11-19T00:00:29;95080.34;;;1.72;72.43
68179;BME280;69812;42.632;23.440;2023-11-19T00:02:55;95057.22;;;1.62;72.56
68179;BME280;69812;42.632;23.440;2023-11-19T00:05:20;95056.91;;;1.53;72.40
68179;BME280;69812;42.632;23.440;2023-11-19T00:07:46;95067.13;;;1.67;72.39
68179;BME280;69812;42.632;23.440;2023-11-19T00:10:12;95068.13;;;1.47;72.57
68179;BME280;69812;42.632;23.440;2023-11-19T00:12:40;95069.53;;;1.53;72.59
68179;BME280;69812;42.632;23.440;2023-11-19T00:15:06;95056.16;;;1.51;72.69
68179;BME280;69812;42.632;23.440;2023-11-19T00:17:37;95054.75;;;1.45;72.28
68179;BME280;69812;42.632;23.440;2023-11-19T00:20:03;95072.31;;;1.64;71.80
68179;BME280;69812;42.632;23.440;2023-11-19T00:22:31;95079.66;;;1.53;72.61
68179;BME280;69812;42.632;23.440;2023-11-19T00:24:56;95092.06;;;1.57;72.03
68179;BME280;69812;42.632;23.440;2023-11-19T00:27:22;95090.03;;;1.64;71.88
68179;BME280;69812;42.632;23.440;2023-11-19T00:29:47;95089.22;;;1.63;72.29
68179;BME280;69812;42.632;23.440;2023-11-19T00:32:12;95092.31;;;1.69;72.10
68179;BME280;69812;42.632;23.440;2023-11-19T00:34:38;95053.06;;;1.46;71.98
68179;BME280;69812;42.632;23.440;2023-11-19T00:37:03;95098.72;;;1.76;72.08
68179;BME280;69812;42.632;23.440;2023-11-19T00:39:29;95075.03;;;1.61;72.10
68179;BME280;69812;42.632;23.440;2023-11-19T00:41:54;95096.88;;;1.62;71.83
68179;BME280;69812;42.632;23.440;2023-11-19T00:44:20;95103.84;;;1.74;71.80
68179;BME280;69812;42.632;23.440;2023-11-19T00:46:45;95099.75;;;1.72;71.73
68179;BME280;69812;42.632;23.440;2023-11-19T00:49:10;95082.13;;;1.54;71.60
68179;BME280;69812;42.632;23.440;2023-11-19T00:51:37;95072.06;;;1.53;71.53
68179;BME280;69812;42.632;23.440;2023-11-19T00:54:03;95070.78;;;1.46;72.30
68179;BME280;69812;42.632;23.440;2023-11-19T00:56:28;95081.78;;;1.44;71.72
68179;BME280;69812;42.632;23.440;2023-11-19T00:58:54;95084.28;;;1.44;72.21
68179;BME280;69812;42.632;23.440;2023-11-19T01:01:19;95088.81;;;1.55;72.03
68179;BME280;69812;42.632;23.440;2023-11-19T01:03:45;95105.28;;;1.62;71.67
68179;BME280;69812;42.632;23.440;2023-11-19T01:06:10;95063.81;;;1.49;71.82
68179;BME280;69812;42.632;23.440;2023-11-19T01:08:35;95099.34;;;1.63;72.16
68179;BME280;69812;42.632;23.440;2023-11-19T01:11:01;95104.47;;;1.62;71.93
68179;BME280;69812;42.632;23.440;2023-11-19T01:13:27;95104.78;;;1.56;72.59
68179;BME280;69812;42.632;23.440;2023-11-19T01:15:53;95110.59;;;1.58;72.23
68179;BME280;69812;42.632;23.440;2023-11-19T01:18:18;95111.31;;;1.60;72.51
68179;BME280;69812;42.632;23.440;2023-11-19T01:20:44;95105.28;;;1.62;72.42
68179;BME280;69812;42.632;23.440;2023-11-19T01:23:09;95114.44;;;1.65;71.85
68179;BME280;69812;42.632;23.440;2023-11-19T01:25:34;95094.91;;;1.51;72.37
68179;BME280;69812;42.632;23.440;2023-11-19T01:28:00;95101.88;;;1.63;71.81
68179;BME280;69812;42.632;23.440;2023-11-19T01:30:27;95107.31;;;1.56;72.11
68179;BME280;69812;42.632;23.440;2023-11-19T01:32:53;95084.91;;;1.50;72.11
68179;BME280;69812;42.632;23.440;2023-11-19T01:35:19;95111.50;;;1.57;71.89
68179;BME280;69812;42.632;23.440;2023-11-19T01:37:44;95075.78;;;1.30;71.99
68179;BME280;69812;42.632;23.440;2023-11-19T01:40:10;95095.31;;;1.43;71.99
68179;BME280;69812;42.632;23.440;2023-11-19T01:42:39;95119.81;;;1.59;72.27
68179;BME280;69812;42.632;23.440;2023-11-19T01:45:06;95106.38;;;1.58;72.10
68179;BME280;69812;42.632;23.440;2023-11-19T01:47:34;95097.94;;;1.58;71.71
68179;BME280;69812;42.632;23.440;2023-11-19T01:50:01;95092.78;;;1.43;71.62
68179;BME280;69812;42.632;23.440;2023-11-19T01:52:27;95090.34;;;1.42;72.02
68179;BME280;69812;42.632;23.440;2023-11-19T01:54:53;95120.69;;;1.58;71.63
68179;BME280;69812;42.632;23.440;2023-11-19T01:57:21;95118.41;;;1.53;71.66
68179;BME280;69812;42.632;23.440;2023-11-19T01:59:49;95138.06;;;1.48;71.62
68179;BME280;69812;42.632;23.440;2023-11-19T02:02:16;95118.09;;;1.43;71.26
68179;BME280;69812;42.632;23.440;2023-11-19T02:04:46;95098.63;;;1.28;71.48
68179;BME280;69812;42.632;23.440;2023-11-19T02:07:13;95094.22;;;1.32;70.80
68179;BME280;69812;42.632;23.440;2023-11-19T02:09:42;95132.53;;;1.41;71.26
68179;BME280;69812;42.632;23.440;2023-11-19T02:12:08;95087.53;;;1.31;70.63
68179;BME280;69812;42.632;23.440;2023-11-19T02:14:34;95078.53;;;1.25;70.89
68179;BME280;69812;42.632;23.440;2023-11-19T02:17:00;95093.25;;;1.34;70.60
68179;BME280;69812;42.632;23.440;2023-11-19T02:19:25;95106.19;;;1.46;70.19
68179;BME280;69812;42.632;23.440;2023-11-19T02:21:50;95092.75;;;1.28;70.93
68179;BME280;69812;42.632;23.440;2023-11-19T02:24:18;95091.13;;;1.27;70.66
68179;BME280;69812;42.632;23.440;2023-11-19T02:27:02;95094.03;;;1.19;71.17
68179;BME280;69812;42.632;23.440;2023-11-19T02:29:31;95091.50;;;1.19;70.91
68179;BME280;69812;42.632;23.440;2023-11-19T02:31:56;95115.66;;;1.25;70.49
68179;BME280;69812;42.632;23.440;2023-11-19T02:34:21;95117.50;;;1.21;70.49
68179;BME280;69812;42.632;23.440;2023-11-19T02:36:47;95109.97;;;1.03;70.83
68179;BME280;69812;42.632;23.440;2023-11-19T02:39:12;95117.50;;;1.21;70.44
68179;BME280;69812;42.632;23.440;2023-11-19T02:41:38;95102.81;;;1.12;70.48
68179;BME280;69812;42.632;23.440;2023-11-19T02:44:06;95089.09;;;1.00;70.97
68179;BME280;69812;42.632;23.440;2023-11-19T02:46:31;95101.50;;;1.05;70.83
68179;BME280;69812;42.632;23.440;2023-11-19T02:48:57;95107.81;;;1.13;71.12
68179;BME280;69812;42.632;23.440;2023-11-19T02:51:23;95087.16;;;1.05;71.12
68179;BME280;69812;42.632;23.440;2023-11-19T02:53:48;95079.50;;;1.07;70.80
68179;BME280;69812;42.632;23.440;2023-11-19T02:56:14;95117.63;;;1.19;70.99
68179;BME280;69812;42.632;23.440;2023-11-19T02:58:50;95097.25;;;1.05;70.46
68179;BME280;69812;42.632;23.440;2023-11-19T03:01:23;95101.38;;;1.23;70.17
68179;BME280;69812;42.632;23.440;2023-11-19T03:03:54;95064.94;;;0.94;70.26
68179;BME280;69812;42.632;23.440;2023-11-19T03:06:22;95091.78;;;1.13;70.73
68179;BME280;69812;42.632;23.440;2023-11-19T03:08:48;95083.88;;;1.03;70.45
68179;BME280;69812;42.632;23.440;2023-11-19T03:11:13;95094.50;;;1.10;70.19
68179;BME280;69812;42.632;23.440;2023-11-19T03:13:39;95115.72;;;1.23;70.85
68179;BME280;69812;42.632;23.440;2023-11-19T03:16:05;95093.63;;;1.11;70.38
68179;BME280;69812;42.632;23.440;2023-11-19T03:18:30;95110.63;;;1.07;70.36
68179;BME280;69812;42.632;23.440;2023-11-19T03:20:56;95111.44;;;1.08;70.86
68179;BME280;69812;42.632;23.440;2023-11-19T03:23:24;95140.28;;;1.21;70.50
68179;BME280;69812;42.632;23.440;2023-11-19T03:25:52;95133.44;;;1.23;70.41
68179;BME280;69812;42.632;23.440;2023-11-19T03:28:18;95117.06;;;1.13;70.37
68179;BME280;69812;42.632;23.440;2023-11-19T03:30:43;95122.75;;;1.18;70.28
68179;BME280;69812;42.632;23.440;2023-11-19T03:33:08;95124.22;;;1.22;70.57
68179;BME280;69812;42.632;23.440;2023-11-19T03:35:34;95119.69;;;1.11;70.44
68179;BME280;69812;42.632;23.440;2023-11-19T03:37:59;95106.25;;;1.11;70.57
68179;BME280;69812;42.632;23.440;2023-11-19T03:40:25;95130.09;;;1.22;70.82
68179;BME280;69812;42.632;23.440;2023-11-19T03:42:50;95125.09;;;1.21;70.84
68179;BME280;69812;42.632;23.440;2023-11-19T03:45:16;95112.75;;;1.15;70.74
68179;BME280;69812;42.632;23.440;2023-11-19T03:47:41;95107.59;;;1.00;70.86
68179;BME280;69812;42.632;23.440;2023-11-19T03:50:07;95122.13;;;1.13;71.17
68179;BME280;69812;42.632;23.440;2023-11-19T03:52:35;95105.56;;;1.07;70.38
68179;BME280;69812;42.632;23.440;2023-11-19T03:55:01;95152.47;;;1.13;70.75
68179;BME280;69812;42.632;23.440;2023-11-19T03:57:28;95138.72;;;1.18;70.68
68179;BME280;69812;42.632;23.440;2023-11-19T03:59:53;95144.59;;;1.19;70.36
68179;BME280;69812;42.632;23.440;2023-11-19T04:02:20;95112.66;;;1.00;70.74
68179;BME280;69812;42.632;23.440;2023-11-19T04:04:46;95143.94;;;1.15;70.96
68179;BME280;69812;42.632;23.440;2023-11-19T04:07:11;95116.91;;;1.00;70.86
68179;BME280;69812;42.632;23.440;2023-11-19T04:09:36;95128.56;;;1.02;70.93
68179;BME280;69812;42.632;23.440;2023-11-19T04:12:05;95146.88;;;1.23;71.14
68179;BME280;69812;42.632;23.440;2023-11-19T04:14:30;95114.16;;;0.87;71.12
68179;BME280;69812;42.632;23.440;2023-11-19T04:16:59;95139.25;;;1.08;71.34
68179;BME280;69812;42.632;23.440;2023-11-19T04:19:24;95144.16;;;1.11;71.38
68179;BME280;69812;42.632;23.440;2023-11-19T04:21:50;95140.16;;;1.07;70.87
68179;BME280;69812;42.632;23.440;2023-11-19T04:24:17;95152.78;;;1.07;71.65
68179;BME280;69812;42.632;23.440;2023-11-19T04:26:43;95117.78;;;0.99;71.10
68179;BME280;69812;42.632;23.440;2023-11-19T04:29:11;95161.34;;;1.21;71.13
68179;BME280;69812;42.632;23.440;2023-11-19T04:31:36;95155.16;;;1.10;70.94
68179;BME280;69812;42.632;23.440;2023-11-19T04:34:04;95145.63;;;0.97;71.26
68179;BME280;69812;42.632;23.440;2023-11-19T04:36:29;95139.94;;;0.94;71.06
68179;BME280;69812;42.632;23.440;2023-11-19T04:38:55;95167.78;;;1.10;71.45
68179;BME280;69812;42.632;23.440;2023-11-19T04:41:20;95140.59;;;0.97;71.12
68179;BME280;69812;42.632;23.440;2023-11-19T04:43:46;95174.28;;;1.15;71.17
68179;BME280;69812;42.632;23.440;2023-11-19T04:46:11;95172.03;;;1.27;70.59
68179;BME280;69812;42.632;23.440;2023-11-19T04:48:37;95155.16;;;1.10;70.61
68179;BME280;69812;42.632;23.440;2023-11-19T04:51:04;95172.50;;;1.17;70.57
68179;BME280;69812;42.632;23.440;2023-11-19T04:53:30;95141.84;;;1.06;70.52
68179;BME280;69812;42.632;23.440;2023-11-19T04:55:55;95150.56;;;1.00;70.87
68179;BME280;69812;42.632;23.440;2023-11-19T04:58:21;95159.34;;;1.11;70.36
68179;BME280;69812;42.632;23.440;2023-11-19T05:00:46;95169.44;;;1.11;70.25
68179;BME280;69812;42.632;23.440;2023-11-19T05:03:12;95179.84;;;1.22;70.23
68179;BME280;69812;42.632;23.440;2023-11-19T05:05:37;95179.69;;;1.25;69.40
68179;BME280;69812;42.632;23.440;2023-11-19T05:08:02;95192.09;;;1.30;69.67
68179;BME280;69812;42.632;23.440;2023-11-19T05:10:28;95196.41;;;1.28;69.79
68179;BME280;69812;42.632;23.440;2023-11-19T05:12:53;95193.66;;;1.15;69.92
68179;BME280;69812;42.632;23.440;2023-11-19T05:15:21;95196.34;;;1.12;69.52
68179;BME280;69812;42.632;23.440;2023-11-19T05:17:46;95197.91;;;1.14;69.44
68179;BME280;69812;42.632;23.440;2023-11-19T05:20:14;95196.94;;;1.17;69.20
68179;BME280;69812;42.632;23.440;2023-11-19T05:22:41;95194.84;;;1.25;69.16
68179;BME280;69812;42.632;23.440;2023-11-19T05:25:07;95165.56;;;1.03;69.43
68179;BME280;69812;42.632;23.440;2023-11-19T05:27:34;95190.25;;;1.16;69.39
68179;BME280;69812;42.632;23.440;2023-11-19T05:30:00;95183.53;;;1.15;69.32
68179;BME280;69812;42.632;23.440;2023-11-19T05:32:25;95179.91;;;1.03;69.59
68179;BME280;69812;42.632;23.440;2023-11-19T05:34:50;95170.25;;;1.11;69.43
68179;BME280;69812;42.632;23.440;2023-11-19T05:37:16;95193.00;;;1.29;69.32
68179;BME280;69812;42.632;23.440;2023-11-19T05:39:42;95205.94;;;1.22;68.68
68179;BME280;69812;42.632;23.440;2023-11-19T05:42:07;95183.88;;;1.09;69.52
68179;BME280;69812;42.632;23.440;2023-11-19T05:44:32;95173.09;;;1.05;69.20
68179;BME280;69812;42.632;23.440;2023-11-19T05:46:58;95191.97;;;1.33;68.61
68179;BME280;69812;42.632;23.440;2023-11-19T05:49:23;95195.81;;;1.22;68.38
68179;BME280;69812;42.632;23.440;2023-11-19T05:51:48;95194.19;;;1.21;68.83
68179;BME280;69812;42.632;23.440;2023-11-19T05:54:14;95189.06;;;1.23;68.52
68179;BME280;69812;42.632;23.440;2023-11-19T05:56:39;95176.13;;;1.12;69.04
68179;BME280;69812;42.632;23.440;2023-11-19T05:59:05;95205.03;;;1.06;69.06
68179;BME280;69812;42.632;23.440;2023-11-19T06:01:39;95200.06;;;1.22;69.11
68179;BME280;69812;42.632;23.440;2023-11-19T06:04:06;95207.03;;;0.99;69.75
68179;BME280;69812;42.632;23.440;2023-11-19T06:06:32;95213.38;;;1.08;69.23
68179;BME280;69812;42.632;23.440;2023-11-19T06:08:57;95213.47;;;1.07;69.22
68179;BME280;69812;42.632;23.440;2023-11-19T06:11:23;95211.66;;;0.91;69.86
68179;BME280;69812;42.632;23.440;2023-11-19T06:13:48;95223.56;;;0.89;69.89
68179;BME280;69812;42.632;23.440;2023-11-19T06:16:15;95242.66;;;0.95;70.00
68179;BME280;69812;42.632;23.440;2023-11-19T06:18:40;95233.28;;;0.97;70.56
68179;BME280;69812;42.632;23.440;2023-11-19T06:21:06;95210.41;;;0.82;69.98
68179;BME280;69812;42.632;23.440;2023-11-19T06:23:32;95225.94;;;1.10;69.65
68179;BME280;69812;42.632;23.440;2023-11-19T06:25:57;95221.91;;;1.06;69.90
68179;BME280;69812;42.632;23.440;2023-11-19T06:28:23;95213.97;;;0.96;69.17
68179;BME280;69812;42.632;23.440;2023-11-19T06:30:48;95215.75;;;1.11;69.93
68179;BME280;69812;42.632;23.440;2023-11-19T06:33:14;95226.31;;;1.19;69.85
68179;BME280;69812;42.632;23.440;2023-11-19T06:35:39;95240.66;;;1.19;69.60
68179;BME280;69812;42.632;23.440;2023-11-19T06:38:05;95225.25;;;1.23;69.54
68179;BME280;69812;42.632;23.440;2023-11-19T06:40:31;95225.47;;;1.19;69.26
68179;BME280;69812;42.632;23.440;2023-11-19T06:42:56;95222.00;;;1.21;69.19
68179;BME280;69812;42.632;23.440;2023-11-19T06:45:22;95218.28;;;1.11;69.16
68179;BME280;69812;42.632;23.440;2023-11-19T06:47:48;95229.66;;;1.20;69.37
68179;BME280;69812;42.632;23.440;2023-11-19T06:50:13;95227.72;;;1.25;69.02
68179;BME280;69812;42.632;23.440;2023-11-19T06:52:40;95242.59;;;1.31;69.40
68179;BME280;69812;42.632;23.440;2023-11-19T06:55:05;95220.81;;;1.29;68.67
68179;BME280;69812;42.632;23.440;2023-11-19T06:57:31;95227.19;;;1.36;68.35
68179;BME280;69812;42.632;23.440;2023-11-19T06:59:58;95246.97;;;1.45;68.20
68179;BME280;69812;42.632;23.440;2023-11-19T07:02:24;95226.53;;;1.32;67.73
68179;BME280;69812;42.632;23.440;2023-11-19T07:04:50;95244.59;;;1.42;68.42
68179;BME280;69812;42.632;23.440;2023-11-19T07:07:16;95257.19;;;1.43;68.12
68179;BME280;69812;42.632;23.440;2023-11-19T07:09:41;95244.03;;;1.37;68.25
68179;BME280;69812;42.632;23.440;2023-11-19T07:12:07;95244.31;;;1.31;68.10
68179;BME280;69812;42.632;23.440;2023-11-19T07:14:32;95249.91;;;1.37;67.93
68179;BME280;69812;42.632;23.440;2023-11-19T07:16:57;95268.91;;;1.62;67.16
68179;BME280;69812;42.632;23.440;2023-11-19T07:19:23;95253.91;;;1.24;67.09
68179;BME280;69812;42.632;23.440;2023-11-19T07:21:48;95266.16;;;1.49;67.15
68179;BME280;69812;42.632;23.440;2023-11-19T07:24:14;95288.56;;;1.57;66.95
68179;BME280;69812;42.632;23.440;2023-11-19T07:26:43;95260.13;;;1.17;67.40
68179;BME280;69812;42.632;23.440;2023-11-19T07:29:09;95265.50;;;1.28;67.50
68179;BME280;69812;42.632;23.440;2023-11-19T07:31:35;95281.63;;;1.26;67.28
68179;BME280;69812;42.632;23.440;2023-11-19T07:34:01;95255.97;;;1.16;67.32
68179;BME280;69812;42.632;23.440;2023-11-19T07:36:26;95282.53;;;1.25;67.24
68179;BME280;69812;42.632;23.440;2023-11-19T07:38:52;95293.69;;;1.38;66.94
68179;BME280;69812;42.632;23.440;2023-11-19T07:41:18;95293.16;;;1.14;67.18
68179;BME280;69812;42.632;23.440;2023-11-19T07:43:45;95296.22;;;1.38;66.87
68179;BME280;69812;42.632;23.440;2023-11-19T07:46:12;95279.09;;;1.43;67.11
68179;BME280;69812;42.632;23.440;2023-11-19T07:48:39;95300.31;;;1.58;66.17
68179;BME280;69812;42.632;23.440;2023-11-19T07:51:04;95255.25;;;1.31;66.12
68179;BME280;69812;42.632;23.440;2023-11-19T07:53:30;95273.53;;;1.19;66.40
68179;BME280;69812;42.632;23.440;2023-11-19T07:55:55;95302.72;;;1.61;65.73
68179;BME280;69812;42.632;23.440;2023-11-19T07:58:20;95310.00;;;1.84;65.92
68179;BME280;69812;42.632;23.440;2023-11-19T08:00:46;95294.81;;;1.67;65.28
68179;BME280;69812;42.632;23.440;2023-11-19T08:03:11;95289.31;;;1.76;65.47
68179;BME280;69812;42.632;23.440;2023-11-19T08:05:37;95303.31;;;1.99;65.16
68179;BME280;69812;42.632;23.440;2023-11-19T08:08:02;95281.19;;;1.70;65.10
68179;BME280;69812;42.632;23.440;2023-11-19T08:10:28;95312.97;;;1.75;65.15
68179;BME280;69812;42.632;23.440;2023-11-19T08:12:54;95306.50;;;1.87;64.99
68179;BME280;69812;42.632;23.440;2023-11-19T08:15:19;95289.13;;;1.79;64.97
68179;BME280;69812;42.632;23.440;2023-11-19T08:17:44;95284.19;;;1.78;64.39
68179;BME280;69812;42.632;23.440;2023-11-19T08:20:10;95308.00;;;1.74;64.34
68179;BME280;69812;42.632;23.440;2023-11-19T08:22:36;95321.59;;;1.71;64.81
68179;BME280;69812;42.632;23.440;2023-11-19T08:25:06;95320.13;;;1.67;64.44
68179;BME280;69812;42.632;23.440;2023-11-19T08:27:33;95315.34;;;1.43;64.87
68179;BME280;69812;42.632;23.440;2023-11-19T08:29:58;95315.78;;;1.52;65.17
68179;BME280;69812;42.632;23.440;2023-11-19T08:32:27;95327.16;;;1.43;65.46
68179;BME280;69812;42.632;23.440;2023-11-19T08:34:53;95282.78;;;1.55;64.62
68179;BME280;69812;42.632;23.440;2023-11-19T08:37:18;95325.09;;;1.86;64.57
68179;BME280;69812;42.632;23.440;2023-11-19T08:39:46;95319.16;;;2.20;63.80
68179;BME280;69812;42.632;23.440;2023-11-19T08:42:12;95319.56;;;2.13;63.90
68179;BME280;69812;42.632;23.440;2023-11-19T08:44:37;95311.56;;;2.20;63.59
68179;BME280;69812;42.632;23.440;2023-11-19T08:47:03;95330.47;;;2.31;63.15
68179;BME280;69812;42.632;23.440;2023-11-19T08:49:31;95312.88;;;1.94;63.68
68179;BME280;69812;42.632;23.440;2023-11-19T08:51:57;95305.94;;;1.98;63.19
68179;BME280;69812;42.632;23.440;2023-11-19T08:54:22;95300.44;;;1.90;63.51
68179;BME280;69812;42.632;23.440;2023-11-19T08:56:48;95302.41;;;2.18;62.51
68179;BME280;69812;42.632;23.440;2023-11-19T08:59:14;95336.97;;;2.52;61.83
68179;BME280;69812;42.632;23.440;2023-11-19T09:01:40;95308.75;;;2.42;61.70
68179;BME280;69812;42.632;23.440;2023-11-19T09:04:06;95316.72;;;2.01;62.36
68179;BME280;69812;42.632;23.440;2023-11-19T09:06:31;95309.59;;;2.25;62.67
68179;BME280;69812;42.632;23.440;2023-11-19T09:08:57;95274.66;;;1.99;62.76
68179;BME280;69812;42.632;23.440;2023-11-19T09:11:26;95297.59;;;2.29;62.36
68179;BME280;69812;42.632;23.440;2023-11-19T09:13:51;95291.16;;;2.23;62.57
68179;BME280;69812;42.632;23.440;2023-11-19T09:16:17;95272.72;;;2.37;61.71
68179;BME280;69812;42.632;23.440;2023-11-19T09:18:43;95271.91;;;2.37;62.16
68179;BME280;69812;42.632;23.440;2023-11-19T09:21:10;95285.94;;;2.42;61.32
68179;BME280;69812;42.632;23.440;2023-11-19T09:23:36;95297.41;;;2.50;61.26
68179;BME280;69812;42.632;23.440;2023-11-19T09:26:05;95272.88;;;2.66;61.79
68179;BME280;69812;42.632;23.440;2023-11-19T09:28:31;95300.28;;;2.91;60.85
68179;BME280;69812;42.632;23.440;2023-11-19T09:30:56;95300.25;;;2.59;60.95
68179;BME280;69812;42.632;23.440;2023-11-19T09:33:23;95298.03;;;2.37;61.33
68179;BME280;69812;42.632;23.440;2023-11-19T09:35:49;95308.41;;;2.49;61.37
68179;BME280;69812;42.632;23.440;2023-11-19T09:38:17;95281.19;;;2.36;61.72
68179;BME280;69812;42.632;23.440;2023-11-19T09:40:42;95292.50;;;2.62;60.96
68179;BME280;69812;42.632;23.440;2023-11-19T09:43:08;95281.84;;;2.56;61.74
68179;BME280;69812;42.632;23.440;2023-11-19T09:45:52;95256.31;;;2.11;61.58
68179;BME280;69812;42.632;23.440;2023-11-19T09:48:18;95279.31;;;2.24;61.93
68179;BME280;69812;42.632;23.440;2023-11-19T09:50:46;95233.72;;;2.56;61.05
68179;BME280;69812;42.632;23.440;2023-11-19T09:53:12;95236.41;;;2.84;60.05
68179;BME280;69812;42.632;23.440;2023-11-19T09:55:38;95264.88;;;3.50;59.58
68179;BME280;69812;42.632;23.440;2023-11-19T09:58:03;95240.91;;;3.70;58.17
68179;BME280;69812;42.632;23.440;2023-11-19T10:00:30;95237.72;;;3.52;56.74
68179;BME280;69812;42.632;23.440;2023-11-19T10:02:56;95259.63;;;3.53;57.59
68179;BME280;69812;42.632;23.440;2023-11-19T10:05:25;95223.38;;;3.06;58.85
68179;BME280;69812;42.632;23.440;2023-11-19T10:07:51;95229.69;;;2.99;58.88
68179;BME280;69812;42.632;23.440;2023-11-19T10:10:17;95215.03;;;2.58;60.05
68179;BME280;69812;42.632;23.440;2023-11-19T10:12:45;95233.28;;;2.79;60.43
68179;BME280;69812;42.632;23.440;2023-11-19T10:15:21;95225.84;;;3.22;59.98
68179;BME280;69812;42.632;23.440;2023-11-19T10:17:50;95210.91;;;2.56;60.78
68179;BME280;69812;42.632;23.440;2023-11-19T10:20:16;95207.06;;;2.80;59.78
68179;BME280;69812;42.632;23.440;2023-11-19T10:22:41;95241.75;;;2.48;61.00
68179;BME280;69812;42.632;23.440;2023-11-19T10:25:26;95223.34;;;2.29;61.68
68179;BME280;69812;42.632;23.440;2023-11-19T10:27:52;95209.31;;;2.39;61.14
68179;BME280;69812;42.632;23.440;2023-11-19T10:30:28;95242.72;;;2.61;61.35
68179;BME280;69812;42.632;23.440;2023-11-19T10:33:07;95246.06;;;2.78;60.73
68179;BME280;69812;42.632;23.440;2023-11-19T10:35:35;95241.47;;;2.68;60.60
68179;BME280;69812;42.632;23.440;2023-11-19T10:38:13;95227.78;;;2.41;60.95
68179;BME280;69812;42.632;23.440;2023-11-19T10:40:39;95202.66;;;2.36;61.31
68179;BME280;69812;42.632;23.440;2023-11-19T10:43:06;95227.53;;;2.45;61.62
68179;BME280;69812;42.632;23.440;2023-11-19T10:45:32;95222.63;;;3.04;60.42
68179;BME280;69812;42.632;23.440;2023-11-19T10:47:59;95220.13;;;3.19;59.20
68179;BME280;69812;42.632;23.440;2023-11-19T10:50:27;95231.91;;;2.90;60.12
68179;BME280;69812;42.632;23.440;2023-11-19T10:52:56;95216.03;;;2.86;59.76
68179;BME280;69812;42.632;23.440;2023-11-19T10:55:32;95187.66;;;2.79;60.16
68179;BME280;69812;42.632;23.440;2023-11-19T10:58:02;95197.91;;;2.62;60.09
68179;BME280;69812;42.632;23.440;2023-11-19T11:00:52;95215.13;;;2.41;60.54
68179;BME280;69812;42.632;23.440;2023-11-19T11:03:21;95223.69;;;2.54;60.63
68179;BME280;69812;42.632;23.440;2023-11-19T11:05:49;95221.84;;;2.88;60.16
68179;BME280;69812;42.632;23.440;2023-11-19T11:08:15;95202.59;;;2.70;59.66
68179;BME280;69812;42.632;23.440;2023-11-19T11:10:54;95228.22;;;2.95;59.79
68179;BME280;69812;42.632;23.440;2023-11-19T11:13:23;95219.84;;;3.09;59.41
68179;BME280;69812;42.632;23.440;2023-11-19T11:15:52;95196.06;;;3.40;58.96
68179;BME280;69812;42.632;23.440;2023-11-19T11:18:22;95176.94;;;2.90;58.63
68179;BME280;69812;42.632;23.440;2023-11-19T11:20:52;95199.94;;;2.87;59.31
68179;BME280;69812;42.632;23.440;2023-11-19T11:26:09;95207.94;;;2.79;59.90
68179;BME280;69812;42.632;23.440;2023-11-19T11:39:39;95196.22;;;3.23;59.27
68179;BME280;69812;42.632;23.440;2023-11-19T11:45:05;95201.25;;;3.39;58.37
68179;BME280;69812;42.632;23.440;2023-11-19T11:55:37;95179.47;;;2.90;58.87
68179;BME280;69812;42.632;23.440;2023-11-19T11:58:30;95167.84;;;3.02;58.50
68179;BME280;69812;42.632;23.440;2023-11-19T12:01:01;95190.31;;;3.08;57.95
68179;BME280;69812;42.632;23.440;2023-11-19T12:03:28;95203.47;;;3.15;58.34
68179;BME280;69812;42.632;23.440;2023-11-19T12:05:55;95202.88;;;3.25;58.63
68179;BME280;69812;42.632;23.440;2023-11-19T12:08:25;95206.16;;;3.42;58.85
68179;BME280;69812;42.632;23.440;2023-11-19T12:10:54;95192.47;;;3.44;58.98
68179;BME280;69812;42.632;23.440;2023-11-19T12:13:23;95207.81;;;3.57;58.72
68179;BME280;69812;42.632;23.440;2023-11-19T12:18:27;95165.16;;;3.19;59.22
68179;BME280;69812;42.632;23.440;2023-11-19T12:20:54;95158.47;;;3.33;60.18
68179;BME280;69812;42.632;23.440;2023-11-19T12:23:20;95179.97;;;3.41;59.34
68179;BME280;69812;42.632;23.440;2023-11-19T12:25:47;95160.47;;;3.42;58.38
68179;BME280;69812;42.632;23.440;2023-11-19T12:28:13;95179.03;;;3.42;58.69
68179;BME280;69812;42.632;23.440;2023-11-19T12:30:40;95154.06;;;3.36;58.54
68179;BME280;69812;42.632;23.440;2023-11-19T12:33:09;95167.28;;;3.41;58.42
68179;BME280;69812;42.632;23.440;2023-11-19T12:35:41;95159.88;;;3.67;59.10
68179;BME280;69812;42.632;23.440;2023-11-19T12:38:06;95163.03;;;3.56;58.14
68179;BME280;69812;42.632;23.440;2023-11-19T12:40:32;95136.28;;;3.36;58.13
68179;BME280;69812;42.632;23.440;2023-11-19T12:42:57;95127.41;;;3.43;58.45
68179;BME280;69812;42.632;23.440;2023-11-19T12:45:24;95138.19;;;3.47;58.18
68179;BME280;69812;42.632;23.440;2023-11-19T12:47:49;95140.81;;;3.45;58.61
68179;BME280;69812;42.632;23.440;2023-11-19T12:50:17;95108.19;;;3.25;59.06
68179;BME280;69812;42.632;23.440;2023-11-19T12:52:55;95144.34;;;3.28;59.09
68179;BME280;69812;42.632;23.440;2023-11-19T12:55:29;95136.56;;;3.46;58.98
68179;BME280;69812;42.632;23.440;2023-11-19T12:57:55;95138.66;;;3.39;59.45
68179;BME280;69812;42.632;23.440;2023-11-19T13:00:24;95150.78;;;3.48;59.03
68179;BME280;69812;42.632;23.440;2023-11-19T13:02:53;95157.28;;;3.38;59.36
68179;BME280;69812;42.632;23.440;2023-11-19T13:05:26;95139.75;;;3.49;58.49
68179;BME280;69812;42.632;23.440;2023-11-19T13:08:21;95140.72;;;3.33;59.17
68179;BME280;69812;42.632;23.440;2023-11-19T13:13:21;95144.44;;;3.41;58.73
68179;BME280;69812;42.632;23.440;2023-11-19T13:15:46;95122.94;;;3.47;59.39
68179;BME280;69812;42.632;23.440;2023-11-19T13:18:12;95128.66;;;3.79;58.99
68179;BME280;69812;42.632;23.440;2023-11-19T13:20:38;95111.00;;;3.78;58.27
68179;BME280;69812;42.632;23.440;2023-11-19T13:23:05;95126.41;;;3.89;58.75
68179;BME280;69812;42.632;23.440;2023-11-19T13:25:32;95115.97;;;3.79;58.26
68179;BME280;69812;42.632;23.440;2023-11-19T13:27:58;95104.00;;;3.81;57.99